Aroma, Indiana
Current Conditions -  °F | °C
As of 1:15 PM on Monday 26 Jan 2015 (Local Time) from KTYQ Reporting Station
Scattered Clouds Scattered Clouds  
Wind Chill: 22°   Ceiling: Unl
Heat Index: 27°   Visibility: 10mi
Dew Point: 17°   Wind: 5mph
Humidity: 66%   Direction: 280°W
Pressure: 29.91"   Gusts: NA
Location:  40.1832°N, 85.9359°W
Report Text: KTYQ 261815Z AUTO 28004KT 10SM SCT019 M03/M08 A2991 RMK AO2 T10271082
Loading
Personal Weather Stations






























Interactive Weather Map New forecast layout! Learn more

10-Day Weather Forecast

Advertisements
Track Severe Weather on mobile